Terminal Aerodrome Forecast
Issued by NWS

Home | Current Version | Previous Version | Text Only | Print | Product List | Glossary Off
Versions: 1 2 3 4 5 6 7 8 9 10 11 12 13 14 15

000
FTUS45 KGGW 181120
TAFOLF
TAF
KOLF 181120Z 1812/1912 27011KT P6SM FEW130
     FM181700 27014KT P6SM FEW160
     FM190000 VRB05KT P6SM SCT150
     FM190400 10004KT P6SM BKN110
     FM191000 VRB05KT P6SM SCT100=

USA.gov is the U.S. government's official web portal to all federal, state and local government web resources and services.